Time;durP1;ratioP1;P1;durP2;ratioP2;P2;SDS_P1;SDS_P2;PMS_P1;PMS_P2;Temp;Humidity;BMP_temperature;BMP_pressure;BME280_temperature;BME280_humidity;BME280_pressure;Samples;Min_cycle;Max_cycle;Signal;HPM_P1;HPM_P2
2022/04/07 00:00:21;;;;;;;7.83;3.70;;;;;;;9.45;100.00;143744.59;4996166;28;20022;-70
2022/04/07 00:02:47;;;;;;;10.00;3.90;;;;;;;9.44;100.00;143402.63;5008555;28;20117;-71
2022/04/07 00:05:12;;;;;;;7.03;3.90;;;;;;;9.41;100.00;142720.22;5006886;28;20117;-70
2022/04/07 00:07:38;;;;;;;6.73;3.80;;;;;;;9.31;100.00;144049.16;5007654;28;20478;-71
2022/04/07 00:10:04;;;;;;;7.83;3.90;;;;;;;9.34;100.00;143380.38;4996184;28;20836;-70
2022/04/07 00:12:32;;;;;;;7.17;3.77;;;;;;;9.30;100.00;143708.53;4999167;28;20482;-71
2022/04/07 00:14:59;;;;;;;7.47;3.73;;;;;;;9.25;100.00;143020.03;5008742;28;20085;-71
2022/04/07 00:17:25;;;;;;;6.57;4.20;;;;;;;9.23;100.00;144367.44;5014072;28;20501;-71
2022/04/07 00:19:51;;;;;;;7.60;4.53;;;;;;;9.19;100.00;144695.56;5007964;28;20080;-71
2022/04/07 00:22:16;;;;;;;9.03;4.10;;;;;;;9.28;100.00;145055.03;5020932;28;20025;-71
2022/04/07 00:24:42;;;;;;;6.93;4.30;;;;;;;9.22;100.00;145379.50;5004928;28;20025;-71
2022/04/07 00:27:07;;;;;;;5.40;3.10;;;;;;;9.33;100.00;145407.13;5006784;28;20443;-71
2022/04/07 00:29:33;;;;;;;6.53;3.53;;;;;;;9.52;100.00;142407.97;5010889;28;20358;-70
2022/04/07 00:31:59;;;;;;;7.97;3.10;;;;;;;9.54;100.00;140722.66;5005597;28;20029;-71
2022/04/07 00:34:24;;;;;;;6.83;3.87;;;;;;;9.51;100.00;138689.44;5005645;28;20044;-71
2022/04/07 00:36:50;;;;;;;10.07;4.03;;;;;;;9.57;100.00;136676.41;5013693;28;20047;-71
2022/04/07 00:39:15;;;;;;;7.40;3.90;;;;;;;9.55;100.00;135660.25;5011870;28;20473;-71
2022/04/07 00:41:42;;;;;;;8.23;4.37;;;;;;;9.55;100.00;135997.75;5010837;28;20029;-71
2022/04/07 00:44:08;;;;;;;6.53;4.03;;;;;;;9.56;100.00;134649.06;5006906;28;20065;-71
2022/04/07 00:46:41;;;;;;;8.00;4.10;;;;;;;9.56;100.00;134649.06;5010154;28;20053;-71
2022/04/07 00:49:08;;;;;;;8.33;4.37;;;;;;;9.56;100.00;133974.31;5010987;28;20037;-70
2022/04/07 00:51:37;;;;;;;5.90;3.97;;;;;;;9.55;100.00;134984.16;5010388;28;20021;-71
2022/04/07 00:54:03;;;;;;;5.43;3.80;;;;;;;9.50;100.00;135984.84;5013609;28;20117;-71
2022/04/07 00:56:30;;;;;;;6.80;4.40;;;;;;;9.62;100.00;134663.03;5007027;28;20033;-70
2022/04/07 00:58:55;;;;;;;6.47;3.83;;;;;;;9.62;100.00;134325.63;5011759;28;20041;-71
2022/04/07 01:01:24;;;;;;;8.37;4.70;;;;;;;9.67;100.00;133325.06;5017388;28;20306;-68
2022/04/07 01:03:50;;;;;;;8.53;4.40;;;;;;;9.58;100.00;133979.00;5015302;28;20032;-68
2022/04/07 01:06:17;;;;;;;12.27;5.20;;;;;;;9.49;100.00;135982.50;5022072;28;20037;-68
2022/04/07 01:08:43;;;;;;;8.57;4.37;;;;;;;9.56;100.00;137349.31;5014215;28;20037;-68
2022/04/07 01:11:08;;;;;;;7.47;4.57;;;;;;;9.53;100.00;137342.19;5008860;28;20036;-68
2022/04/07 01:13:49;;;;;;;6.13;3.33;;;;;;;9.60;100.00;137358.81;4997399;28;20030;-68
2022/04/07 01:16:16;;;;;;;8.33;3.80;;;;;;;9.73;100.00;134350.00;5004765;28;20026;-68
2022/04/07 01:18:41;;;;;;;6.33;3.80;;;;;;;9.74;100.00;131317.50;5008315;28;20433;-68
2022/04/07 01:21:09;;;;;;;6.90;4.20;;;;;;;9.67;100.00;129953.28;5014596;28;20033;-68
2022/04/07 01:23:38;;;;;;;8.07;4.50;;;;;;;9.71;100.00;129287.16;5001593;28;20489;-68
2022/04/07 01:26:04;;;;;;;5.60;3.37;;;;;;;9.65;100.00;130285.81;5004493;28;20034;-68
2022/04/07 01:28:30;;;;;;;6.77;3.73;;;;;;;9.62;100.00;129943.19;5005145;28;20061;-68
2022/04/07 01:30:55;;;;;;;7.90;3.17;;;;;;;9.68;100.00;129618.53;5010001;28;20116;-68
2022/04/07 01:33:21;;;;;;;6.00;4.00;;;;;;;9.67;100.00;128605.47;5002764;28;20026;-68
2022/04/07 01:35:46;;;;;;;7.30;4.07;;;;;;;9.63;100.00;128933.47;5006333;28;20033;-68
2022/04/07 01:38:12;;;;;;;7.63;3.47;;;;;;;9.74;100.00;125590.00;5005338;28;20029;-68
2022/04/07 01:40:38;;;;;;;5.63;3.40;;;;;;;9.74;100.00;125590.00;5006137;28;20370;-68
2022/04/07 01:43:05;;;;;;;6.97;3.63;;;;;;;9.74;100.00;125590.00;5000644;28;20034;-68
2022/04/07 01:45:33;;;;;;;5.83;2.80;;;;;;;9.70;100.00;123898.66;5005542;28;20594;-68
2022/04/07 01:48:01;;;;;;;5.80;3.50;;;;;;;9.67;100.00;122546.69;5009686;28;20374;-68
2022/04/07 01:50:29;;;;;;;6.03;3.30;;;;;;;9.77;100.00;121221.63;5009281;28;20034;-68
2022/04/07 01:52:56;;;;;;;8.77;3.60;;;;;;;9.77;100.00;119540.84;5023719;28;20426;-68
2022/04/07 01:55:23;;;;;;;7.33;3.77;;;;;;;9.67;100.00;119858.28;5006233;28;20051;-68
2022/04/07 01:57:49;;;;;;;6.70;3.17;;;;;;;9.65;100.00;123887.91;5010524;28;20029;-68
2022/04/07 02:00:15;;;;;;;6.47;3.37;;;;;;;9.49;100.00;130586.78;5006999;28;20079;-68
2022/04/07 02:02:40;;;;;;;5.80;3.00;;;;;;;9.28;100.00;138296.72;5005099;28;20057;-68
2022/04/07 02:05:11;;;;;;;5.43;3.27;;;;;;;9.18;100.00;144693.06;5006716;28;20032;-68
2022/04/07 02:07:39;;;;;;;7.97;4.77;;;;;;;9.03;100.00;149732.75;5004765;28;20029;-68
2022/04/07 02:10:05;;;;;;;6.37;3.93;;;;;;;9.06;100.00;149740.50;5013555;28;20033;-68
2022/04/07 02:12:33;;;;;;;8.00;4.10;;;;;;;9.09;100.00;149748.31;5006927;28;20030;-68
2022/04/07 02:15:01;;;;;;;6.17;4.10;;;;;;;9.08;100.00;149746.97;5004439;28;20029;-68
2022/04/07 02:17:27;;;;;;;7.20;4.10;;;;;;;8.98;100.00;149719.84;5011380;28;20021;-67
2022/04/07 02:19:54;;;;;;;6.17;4.00;;;;;;;8.91;100.00;149701.72;5003510;28;20037;-67
2022/04/07 02:22:20;;;;;;;7.70;4.83;;;;;;;8.79;100.00;149673.25;5003449;28;20034;-67
2022/04/07 02:24:47;;;;;;;8.50;4.87;;;;;;;8.80;100.00;149674.53;5011733;28;20025;-68
2022/04/07 02:27:13;;;;;;;7.33;5.43;;;;;;;8.75;100.00;149662.94;5010203;28;20033;-67
2022/04/07 02:29:38;;;;;;;8.73;5.10;;;;;;;8.71;100.00;149652.53;5010737;28;20539;-68
2022/04/07 02:32:05;;;;;;;4.83;3.17;;;;;;;8.78;100.00;149669.38;5020037;28;20096;-68
2022/04/07 02:34:31;;;;;;;7.73;4.80;;;;;;;8.79;100.00;149671.97;5000235;28;20049;-67
2022/04/07 02:36:56;;;;;;;5.50;3.50;;;;;;;8.80;100.00;149675.84;5011941;28;20049;-70
2022/04/07 02:39:22;;;;;;;8.63;5.30;;;;;;;8.76;100.00;149664.22;5008485;28;20033;-69
2022/04/07 02:41:48;;;;;;;6.10;4.27;;;;;;;8.83;100.00;149682.28;5012665;28;20029;-69
2022/04/07 02:44:13;;;;;;;7.00;3.50;;;;;;;8.98;100.00;149719.84;5010628;28;20105;-69
2022/04/07 02:46:38;;;;;;;7.37;4.23;;;;;;;8.94;100.00;149710.75;5008044;28;20068;-69
2022/04/07 02:49:05;;;;;;;7.73;4.73;;;;;;;8.90;100.00;149700.41;5008514;28;20375;-69
2022/04/07 02:51:31;;;;;;;8.83;4.27;;;;;;;8.90;100.00;149699.13;5014826;28;20033;-69
2022/04/07 02:53:58;;;;;;;5.10;2.80;;;;;;;9.01;100.00;149727.59;5017442;28;20121;-70
2022/04/07 02:56:27;;;;;;;8.70;3.87;;;;;;;9.03;100.00;149732.75;5008803;28;20057;-70
2022/04/07 02:58:53;;;;;;;6.47;3.00;;;;;;;9.14;100.00;149761.22;5009560;28;20048;-69
2022/04/07 03:01:18;;;;;;;7.07;3.13;;;;;;;9.13;100.00;149757.34;5009856;28;20041;-69
2022/04/07 03:03:44;;;;;;;7.37;3.50;;;;;;;9.19;100.00;149774.13;5006681;28;20061;-69
2022/04/07 03:06:09;;;;;;;6.80;3.13;;;;;;;9.28;100.00;149796.13;5002230;28;20030;-69
2022/04/07 03:08:35;;;;;;;5.43;2.97;;;;;;;9.20;100.00;149776.72;5003477;28;20626;-70
2022/04/07 03:11:01;;;;;;;6.57;3.13;;;;;;;9.18;100.00;149771.53;5005625;28;20464;-69
2022/04/07 03:13:27;;;;;;;6.83;2.87;;;;;;;9.20;100.00;149776.72;5015748;28;20410;-69
2022/04/07 03:15:53;;;;;;;6.80;3.00;;;;;;;9.19;100.00;149771.50;5012768;28;20123;-70
2022/04/07 03:18:19;;;;;;;6.60;2.60;;;;;;;9.29;100.00;147088.84;5005885;28;20030;-70
2022/04/07 03:20:44;;;;;;;7.53;2.90;;;;;;;9.12;100.00;147384.03;5008291;28;20037;-69
2022/04/07 03:23:10;;;;;;;5.50;2.67;;;;;;;8.97;100.00;149717.25;5001820;28;20370;-70
2022/04/07 03:25:36;;;;;;;7.03;2.53;;;;;;;8.84;100.00;149683.59;5008244;28;20438;-70
2022/04/07 03:28:03;;;;;;;8.07;2.70;;;;;;;8.69;100.00;149647.38;5011613;28;20061;-69
2022/04/07 03:30:28;;;;;;;5.73;2.57;;;;;;;8.51;100.00;149602.16;4998024;28;20014;-69
2022/04/07 03:32:53;;;;;;;6.23;2.30;;;;;;;8.40;100.00;149572.41;5002121;28;20034;-69
2022/04/07 03:35:19;;;;;;;5.77;3.03;;;;;;;8.27;100.00;149540.03;4993587;28;20030;-69
2022/04/07 03:37:44;;;;;;;5.30;2.23;;;;;;;8.28;100.00;149542.63;5013281;28;20394;-69
2022/04/07 03:40:10;;;;;;;3.57;1.97;;;;;;;8.25;100.00;149533.59;4999717;28;20023;-69
2022/04/07 03:42:36;;;;;;;9.37;4.00;;;;;;;8.30;100.00;149546.50;4996831;28;20104;-69
2022/04/07 03:45:01;;;;;;;9.77;3.50;;;;;;;8.27;100.00;149538.75;5009009;28;20152;-69
2022/04/07 03:47:27;;;;;;;8.27;4.00;;;;;;;8.16;100.00;149512.88;5005902;28;20022;-69
2022/04/07 03:49:52;;;;;;;8.47;4.50;;;;;;;8.13;100.00;149503.88;5009821;28;20383;-69
2022/04/07 03:52:18;;;;;;;8.97;3.90;;;;;;;8.16;100.00;149511.59;5011727;28;20025;-69
2022/04/07 03:54:43;;;;;;;5.53;2.60;;;;;;;8.25;100.00;149533.59;5008479;28;20034;-69
2022/04/07 03:57:08;;;;;;;8.57;3.60;;;;;;;8.20;100.00;149523.22;5014893;28;20486;-69
2022/04/07 03:59:38;;;;;;;7.67;4.10;;;;;;;8.13;100.00;149505.16;5010075;28;20045;-69
2022/04/07 04:02:05;;;;;;;8.73;3.37;;;;;;;8.15;100.00;149510.31;5008529;28;20053;-70
2022/04/07 04:04:31;;;;;;;6.90;3.10;;;;;;;8.19;100.00;149520.63;5008056;28;20097;-70
2022/04/07 04:06:56;;;;;;;7.63;3.70;;;;;;;8.23;100.00;149530.97;5010477;28;20475;-70
2022/04/07 04:09:22;;;;;;;8.20;3.33;;;;;;;8.22;100.00;149528.38;5011289;28;20041;-70
2022/04/07 04:11:47;;;;;;;11.17;3.67;;;;;;;8.26;100.00;149536.16;5011870;28;20022;-69
2022/04/07 04:14:13;;;;;;;8.30;4.03;;;;;;;8.19;100.00;149519.34;5008758;28;20037;-69
2022/04/07 04:16:38;;;;;;;7.93;3.83;;;;;;;8.13;100.00;149503.88;5012274;28;20040;-69
2022/04/07 04:19:04;;;;;;;8.13;4.50;;;;;;;8.16;100.00;149512.88;5003869;28;20017;-69
2022/04/07 04:21:30;;;;;;;6.83;3.30;;;;;;;8.16;100.00;149512.88;5022604;28;20014;-69
2022/04/07 04:23:55;;;;;;;9.73;4.13;;;;;;;8.17;100.00;149515.47;5010901;28;20025;-69
2022/04/07 04:26:20;;;;;;;6.47;3.57;;;;;;;8.18;100.00;149518.06;5006757;28;20051;-69
2022/04/07 04:28:46;;;;;;;7.97;3.73;;;;;;;8.18;100.00;149516.75;5004333;28;20048;-69
2022/04/07 04:31:11;;;;;;;6.40;4.20;;;;;;;8.23;100.00;149530.97;5013282;28;20018;-69
2022/04/07 04:33:36;;;;;;;9.23;3.40;;;;;;;8.23;100.00;149530.97;5006615;28;20034;-69
2022/04/07 04:36:02;;;;;;;9.67;4.00;;;;;;;8.23;100.00;149530.97;5010133;28;20113;-69
2022/04/07 04:38:27;;;;;;;9.67;4.17;;;;;;;8.17;100.00;149515.47;5009783;28;20052;-69
2022/04/07 04:40:53;;;;;;;5.40;2.83;;;;;;;8.23;100.00;149530.97;5017064;28;20017;-69
2022/04/07 04:43:18;;;;;;;10.17;3.93;;;;;;;8.11;100.00;149499.94;5010815;28;20080;-69
2022/04/07 04:45:44;;;;;;;9.20;3.67;;;;;;;8.07;100.00;149489.63;5008535;28;20057;-70
2022/04/07 04:48:09;;;;;;;7.97;3.70;;;;;;;8.02;100.00;149476.72;5010593;28;20025;-69
2022/04/07 04:50:35;;;;;;;7.70;3.60;;;;;;;8.06;100.00;149487.03;5008218;28;20103;-69
2022/04/07 04:53:00;;;;;;;9.50;4.37;;;;;;;8.00;100.00;149471.56;5011739;28;20018;-69
2022/04/07 04:55:26;;;;;;;9.73;3.93;;;;;;;8.10;100.00;149496.06;5017994;28;20096;-69
2022/04/07 04:57:51;;;;;;;9.17;3.70;;;;;;;8.08;100.00;149492.19;5011484;28;20029;-69
2022/04/07 05:00:17;;;;;;;9.97;4.30;;;;;;;8.10;100.00;149496.06;5007464;28;20112;-69
2022/04/07 05:02:42;;;;;;;9.13;3.30;;;;;;;8.25;100.00;149533.59;5008887;28;20036;-69
2022/04/07 05:05:08;;;;;;;9.47;3.20;;;;;;;8.31;100.00;149549.06;5008248;28;20010;-69
2022/04/07 05:07:34;;;;;;;13.33;3.67;;;;;;;8.45;100.00;149585.31;5012862;28;20030;-69
2022/04/07 05:09:59;;;;;;;7.50;2.83;;;;;;;8.43;100.00;149580.16;5008557;28;20033;-69
2022/04/07 05:12:26;;;;;;;9.90;2.90;;;;;;;8.58;100.00;149618.94;5009760;28;20145;-69
2022/04/07 05:14:52;;;;;;;11.27;2.40;;;;;;;8.77;100.00;149666.78;5008057;28;20092;-69
2022/04/07 05:17:21;;;;;;;7.50;2.43;;;;;;;8.74;100.00;149660.34;5012331;28;20037;-69
2022/04/07 05:19:46;;;;;;;7.37;1.90;;;;;;;8.80;100.00;149674.53;5009517;28;20033;-69
2022/04/07 05:22:12;;;;;;;7.93;2.50;;;;;;;8.87;100.00;149691.38;5016910;28;20029;-69
2022/04/07 05:24:37;;;;;;;6.90;1.90;;;;;;;8.85;100.00;149687.50;5006314;28;20032;-69
2022/04/07 05:27:03;;;;;;;9.10;2.57;;;;;;;8.89;100.00;149696.53;5001848;28;20052;-69
2022/04/07 05:29:28;;;;;;;9.27;2.60;;;;;;;9.05;100.00;149739.22;4996123;28;20026;-69
2022/04/07 05:31:54;;;;;;;7.33;2.33;;;;;;;8.91;100.00;149701.72;5001508;28;20022;-69
2022/04/07 05:34:19;;;;;;;8.07;2.47;;;;;;;8.87;100.00;149691.38;5009106;28;20057;-69
2022/04/07 05:36:44;;;;;;;9.50;2.30;;;;;;;9.09;100.00;149748.31;5007710;28;20045;-69
2022/04/07 05:39:10;;;;;;;9.97;2.17;;;;;;;9.04;100.00;149735.34;5005510;28;20266;-69
2022/04/07 05:41:35;;;;;;;10.87;2.20;;;;;;;9.12;100.00;147045.66;5009228;28;20034;-69
2022/04/07 05:44:01;;;;;;;10.70;2.20;;;;;;;9.14;100.00;144683.06;5007434;28;20105;-69
2022/04/07 05:46:26;;;;;;;7.37;2.03;;;;;;;9.00;100.00;145662.38;5011929;28;20045;-69
2022/04/07 05:48:51;;;;;;;11.57;2.20;;;;;;;8.87;100.00;149011.91;5010480;28;20018;-69
2022/04/07 05:51:17;;;;;;;7.57;2.20;;;;;;;8.89;100.00;149696.53;5010136;28;20021;-69
2022/04/07 05:53:42;;;;;;;7.47;2.47;;;;;;;8.77;100.00;149666.78;5013889;28;20041;-69
2022/04/07 05:56:08;;;;;;;7.80;3.07;;;;;;;8.78;100.00;149670.66;5009220;28;20030;-69
2022/04/07 05:58:33;;;;;;;12.23;2.40;;;;;;;8.78;100.00;149669.38;4997458;28;20077;-69
2022/04/07 06:00:59;;;;;;;7.50;2.40;;;;;;;8.89;100.00;149697.84;5007594;28;20033;-69
2022/04/07 06:03:24;;;;;;;7.77;2.47;;;;;;;9.03;100.00;149732.75;5008058;28;20117;-69
2022/04/07 06:05:52;;;;;;;13.17;2.80;;;;;;;9.06;100.00;149740.50;5002127;28;20026;-69
2022/04/07 06:08:19;;;;;;;12.17;2.57;;;;;;;9.11;100.00;149753.47;5015373;28;20040;-69
2022/04/07 06:10:45;;;;;;;6.87;2.50;;;;;;;9.17;100.00;149768.97;5012735;28;20026;-69
2022/04/07 06:13:11;;;;;;;7.83;2.20;;;;;;;9.26;100.00;149792.25;5013999;28;20111;-69
2022/04/07 06:15:39;;;;;;;6.50;2.23;;;;;;;9.35;100.00;149472.91;4995363;28;20017;-69
2022/04/07 06:18:05;;;;;;;8.43;2.60;;;;;;;9.48;100.00;146458.84;5006890;28;20026;-69
2022/04/07 06:20:31;;;;;;;9.87;2.50;;;;;;;9.49;100.00;141048.47;5014721;28;20021;-69
2022/04/07 06:22:57;;;;;;;6.67;1.93;;;;;;;9.43;100.00;140358.00;4997917;28;20026;-69
2022/04/07 06:25:22;;;;;;;5.83;1.83;;;;;;;9.31;100.00;140669.16;4995966;28;20478;-69
2022/04/07 06:27:48;;;;;;;9.73;3.17;;;;;;;9.47;100.00;138004.47;4995533;28;20033;-69
2022/04/07 06:30:19;;;;;;;7.47;2.37;;;;;;;9.77;100.00;133010.72;5002460;28;20022;-69
2022/04/07 06:32:46;;;;;;;5.50;1.90;;;;;;;9.77;100.00;127953.88;5015315;28;20030;-69
2022/04/07 06:35:13;;;;;;;9.47;1.90;;;;;;;9.67;100.00;124901.66;5014697;28;20038;-69
2022/04/07 06:37:46;;;;;;;7.93;2.07;;;;;;;9.71;100.00;116506.38;5015207;28;20083;-69
2022/04/07 06:40:12;;;;;;;4.70;1.63;;;;;;;9.71;100.00;115498.28;5013740;28;20025;-69
2022/04/07 06:42:40;;;;;;;8.77;2.20;;;;;;;9.84;100.00;102789.66;5012202;28;20026;-69
2022/04/07 06:45:06;;;;;;;5.50;1.70;;;;;;;9.72;100.00;102769.16;5014566;28;20564;-69
2022/04/07 06:47:38;;;;;;;7.03;1.93;;;;;;;9.71;100.00;102432.97;5015055;28;20478;-69
2022/04/07 06:50:04;;;;;;;6.43;1.53;;;;;;;9.77;100.00;98431.75;5013879;28;20085;-69
2022/04/07 06:52:30;;;;;;;5.80;1.77;;;;;;;9.80;100.00;93096.66;5014312;28;20022;-69
2022/04/07 06:54:55;;;;;;;5.37;1.70;;;;;;;9.85;100.00;87438.41;5002477;28;20088;-69
2022/04/07 06:57:20;;;;;;;5.10;1.60;;;;;;;9.78;100.00;86096.00;5014819;28;20022;-69
2022/04/07 06:59:46;;;;;;;8.00;1.67;;;;;;;9.63;100.00;94736.91;5014107;28;20117;-69
2022/04/07 07:02:11;;;;;;;6.60;1.73;;;;;;;9.58;100.00;105754.81;5014440;28;20022;-70
2022/04/07 07:04:36;;;;;;;6.33;1.80;;;;;;;9.42;100.00;113764.25;5013568;28;20022;-69
2022/04/07 07:07:02;;;;;;;5.50;2.20;;;;;;;9.32;100.00;122473.59;5014274;28;20056;-69
2022/04/07 07:09:28;;;;;;;4.70;1.73;;;;;;;9.10;100.00;134544.44;5010032;28;20029;-69
2022/04/07 07:11:53;;;;;;;5.67;2.40;;;;;;;8.99;100.00;142955.81;4994609;28;20031;-71
2022/04/07 07:14:19;;;;;;;6.77;1.90;;;;;;;8.91;100.00;148345.44;5002289;28;20109;-69
2022/04/07 07:16:44;;;;;;;6.77;2.63;;;;;;;8.75;100.00;149662.94;5014132;28;20026;-69
2022/04/07 07:19:10;;;;;;;6.23;2.40;;;;;;;8.68;100.00;149644.78;5007943;28;20568;-68
2022/04/07 07:21:36;;;;;;;7.03;2.67;;;;;;;8.65;100.00;149637.06;5013470;28;20030;-69
2022/04/07 07:24:02;;;;;;;7.13;2.87;;;;;;;8.54;100.00;149608.59;5013024;28;20097;-69
2022/04/07 07:26:28;;;;;;;7.60;3.23;;;;;;;8.49;100.00;149595.69;5013385;28;20040;-69
2022/04/07 07:28:53;;;;;;;6.13;2.77;;;;;;;8.52;100.00;149603.44;5004922;28;20030;-69
2022/04/07 07:31:18;;;;;;;7.33;3.90;;;;;;;8.41;100.00;149576.28;4994573;28;20378;-69
2022/04/07 07:33:43;;;;;;;8.97;4.20;;;;;;;8.44;100.00;149584.03;5005912;28;20367;-68
2022/04/07 07:36:09;;;;;;;8.43;4.03;;;;;;;8.48;100.00;149593.09;5013343;28;20442;-68
2022/04/07 07:38:34;;;;;;;6.73;3.97;;;;;;;8.54;100.00;149607.31;5013624;28;20053;-71
2022/04/07 07:41:01;;;;;;;5.90;3.70;;;;;;;8.67;100.00;149640.94;5012053;28;20033;-69
2022/04/07 07:43:26;;;;;;;5.70;3.70;;;;;;;8.79;100.00;149673.25;5011709;28;20490;-69
2022/04/07 07:45:51;;;;;;;3.67;2.53;;;;;;;8.79;100.00;149671.97;5013697;28;20033;-69
2022/04/07 07:48:20;;;;;;;3.77;2.17;;;;;;;8.77;100.00;149668.09;5008612;28;20034;-69
2022/04/07 07:50:45;;;;;;;6.47;4.03;;;;;;;8.69;100.00;149647.38;5009267;28;20057;-69
2022/04/07 07:53:11;;;;;;;5.57;2.67;;;;;;;8.72;100.00;149655.19;5012520;28;20594;-69
2022/04/07 07:55:37;;;;;;;4.70;2.50;;;;;;;8.68;100.00;149644.78;5013031;28;20164;-70
2022/04/07 07:58:03;;;;;;;5.17;3.30;;;;;;;8.54;100.00;149608.59;5013250;28;20033;-69
2022/04/07 08:00:29;;;;;;;2.43;0.63;;;;;;;5.66;100.00;148877.59;5013385;28;20021;-69
2022/04/07 08:02:55;;;;;;;3.63;1.30;;;;;;;4.98;100.00;148706.16;5012150;28;20030;-69
2022/04/07 08:05:20;;;;;;;3.93;0.90;;;;;;;4.89;100.00;148681.66;5003257;28;20029;-69
2022/04/07 08:07:46;;;;;;;0.83;0.50;;;;;;;4.95;100.00;148698.38;5013066;28;20033;-69
2022/04/07 08:10:11;;;;;;;1.93;0.60;;;;;;;4.98;100.00;148704.84;4993947;28;20019;-69
2022/04/07 08:12:39;;;;;;;1.97;0.50;;;;;;;4.96;100.00;148699.66;4994054;28;20407;-69
2022/04/07 08:15:05;;;;;;;2.00;0.90;;;;;;;5.00;100.00;148710.00;5000466;28;20025;-69
2022/04/07 08:17:31;;;;;;;3.73;0.73;;;;;;;4.98;100.00;148704.84;5013429;28;20022;-69
2022/04/07 08:19:57;;;;;;;2.33;0.90;;;;;;;5.06;100.00;148725.44;4999947;28;20032;-69
2022/04/07 08:22:22;;;;;;;2.77;0.80;;;;;;;5.10;100.00;148734.50;5012928;28;20025;-69
2022/04/07 08:24:47;;;;;;;5.07;1.00;;;;;;;5.13;100.00;148743.50;4996822;28;20041;-68
2022/04/07 08:27:13;;;;;;;3.33;0.80;;;;;;;5.15;100.00;148748.66;5002041;28;20393;-68
2022/04/07 08:29:38;;;;;;;2.50;0.83;;;;;;;5.17;100.00;148752.53;5012112;28;20060;-68
2022/04/07 08:32:04;;;;;;;4.13;1.10;;;;;;;5.16;100.00;148751.25;5012830;28;20060;-68
2022/04/07 08:34:30;;;;;;;2.97;0.80;;;;;;;5.12;100.00;148740.94;5012220;28;20294;-68
2022/04/07 08:36:55;;;;;;;0.80;0.50;;;;;;;5.06;100.00;148725.44;5012291;28;20064;-68
2022/04/07 08:39:21;;;;;;;1.67;0.67;;;;;;;5.01;100.00;148712.56;5011418;28;20057;-68
2022/04/07 08:41:48;;;;;;;0.87;0.57;;;;;;;5.03;100.00;148717.72;5012718;28;20076;-68
2022/04/07 08:44:15;;;;;;;1.80;0.60;;;;;;;5.00;100.00;148711.28;5011687;28;20406;-68
2022/04/07 08:46:43;;;;;;;2.43;0.80;;;;;;;5.00;100.00;148710.00;5011510;28;20117;-68
2022/04/07 08:49:08;;;;;;;2.43;0.80;;;;;;;5.00;100.00;148710.00;5010341;28;20025;-68
2022/04/07 08:51:35;;;;;;;3.53;0.80;;;;;;;5.00;100.00;148710.00;5009607;28;20021;-68
2022/04/07 08:54:00;;;;;;;2.30;1.00;;;;;;;5.10;100.00;148734.50;5011838;28;20030;-68
2022/04/07 08:56:26;;;;;;;2.30;0.80;;;;;;;5.16;100.00;148749.94;5011157;28;20041;-68
2022/04/07 08:58:53;;;;;;;2.43;1.10;;;;;;;5.25;100.00;148773.16;5008437;28;20052;-68
2022/04/07 09:01:19;;;;;;;2.30;0.90;;;;;;;5.14;100.00;148744.81;5011934;28;20049;-68
2022/04/07 09:03:44;;;;;;;1.67;0.70;;;;;;;4.97;100.00;148703.56;5008695;28;20470;-68
2022/04/07 09:06:10;;;;;;;1.63;0.60;;;;;;;4.88;100.00;148679.06;5011499;28;20026;-68
2022/04/07 09:08:36;;;;;;;2.97;0.87;;;;;;;4.83;100.00;148667.44;5011438;28;20025;-68
2022/04/07 09:11:05;;;;;;;1.50;0.80;;;;;;;4.87;100.00;148676.50;5012086;28;20033;-68
2022/04/07 09:13:35;;;;;;;2.17;0.80;;;;;;;4.75;100.00;148645.56;5011173;28;20064;-68
2022/04/07 09:16:03;;;;;;;1.93;0.90;;;;;;;4.75;100.00;148645.56;5012083;28;20054;-68
2022/04/07 09:18:34;;;;;;;3.33;1.03;;;;;;;4.61;100.00;148612.06;5011527;28;20445;-68
2022/04/07 09:21:00;;;;;;;2.05;0.80;;;;;;;4.57;100.00;148601.72;5011047;28;20437;-69
2022/04/07 09:23:25;;;;;;;1.33;0.63;;;;;;;4.63;100.00;148615.94;5010378;28;20034;-68
2022/04/07 09:25:50;;;;;;;0.40;0.30;;;;;;;4.33;100.00;148541.19;5011809;28;20034;-68
2022/04/07 09:28:29;;;;;;;0.97;0.50;;;;;;;4.33;100.00;148539.91;5011678;28;20036;-68
2022/04/07 09:30:56;;;;;;;1.97;0.80;;;;;;;4.28;100.00;148527.03;5011355;28;20117;-68
2022/04/07 09:33:23;;;;;;;2.87;0.70;;;;;;;4.20;100.00;148507.69;5010741;28;20064;-68
2022/04/07 09:36:05;;;;;;;4.13;0.93;;;;;;;4.16;100.00;148496.13;5011449;28;20406;-68
2022/04/07 09:38:31;;;;;;;1.48;0.73;;;;;;;3.99;100.00;148454.88;5011006;28;20025;-68
2022/04/07 09:41:11;;;;;;;0.40;0.30;;;;;;;3.86;100.00;148421.41;5011430;28;20445;-68
2022/04/07 09:43:43;;;;;;;1.40;0.70;;;;;;;3.68;100.00;148376.38;5011248;28;20422;-68
2022/04/07 09:46:13;;;;;;;1.27;0.57;;;;;;;3.50;100.00;148331.28;5011826;28;20460;-68
2022/04/07 09:48:39;;;;;;;1.27;0.57;;;;;;;3.39;100.00;148303.00;5011220;28;20404;-68
2022/04/07 09:51:07;;;;;;;2.17;0.83;;;;;;;3.44;100.00;148315.88;5007413;28;20030;-68
2022/04/07 09:53:39;;;;;;;1.90;0.57;;;;;;;3.47;100.00;148322.28;5003064;28;20030;-68
2022/04/07 09:56:06;;;;;;;2.78;1.00;;;;;;;3.57;100.00;148348.03;5007461;28;20034;-68
2022/04/07 09:58:33;;;;;;;3.30;1.20;;;;;;;3.60;100.00;148355.75;5005235;28;20041;-68
2022/04/07 10:01:02;;;;;;;0.97;0.60;;;;;;;3.64;100.00;148364.78;4991887;28;20042;-68
2022/04/07 10:03:31;;;;;;;1.37;0.60;;;;;;;3.64;100.00;148364.78;5001585;28;20049;-68
2022/04/07 10:05:58;;;;;;;1.57;0.60;;;;;;;3.69;100.00;148377.66;5011330;28;20026;-68
2022/04/07 10:08:24;;;;;;;2.37;0.97;;;;;;;3.78;100.00;148400.84;5005999;28;20030;-68
2022/04/07 10:10:50;;;;;;;2.03;0.73;;;;;;;3.97;100.00;148448.44;4993400;28;20125;-70
2022/04/07 10:13:15;;;;;;;1.50;0.80;;;;;;;4.23;100.00;148515.41;4991480;28;20109;-70
2022/04/07 10:15:42;;;;;;;4.33;1.23;;;;;;;4.81;100.00;148662.28;4994940;28;20409;-70
2022/04/07 10:18:15;;;;;;;1.87;0.73;;;;;;;5.71;100.00;148889.22;5009657;28;20034;-70
2022/04/07 10:20:45;;;;;;;2.37;0.90;;;;;;;6.42;100.00;149071.19;5010799;28;20030;-70
2022/04/07 10:23:50;;;;;;;1.23;0.73;;;;;;;6.78;100.00;149161.50;4996038;28;20482;-70
2022/04/07 10:26:16;;;;;;;2.53;1.17;;;;;;;7.42;100.00;149324.25;4991486;28;20034;-70
2022/04/07 10:29:17;;;;;;;1.90;0.67;;;;;;;7.46;100.00;149334.56;4991806;28;20382;-70
2022/04/07 10:32:11;;;;;;;1.70;0.90;;;;;;;7.64;100.00;149381.09;4991801;28;20022;-70
2022/04/07 10:34:42;;;;;;;3.27;1.07;;;;;;;7.88;100.00;149440.53;4994569;28;20398;-69
2022/04/07 10:37:08;;;;;;;2.23;0.70;;;;;;;7.99;100.00;149467.63;5010658;28;20500;-70
2022/04/07 10:39:33;;;;;;;1.87;0.73;;;;;;;8.47;100.00;149591.78;5010476;28;20026;-70
2022/04/07 10:42:00;;;;;;;1.67;0.73;;;;;;;8.85;100.00;144610.63;5009823;28;20109;-70
2022/04/07 10:44:27;;;;;;;1.73;0.70;;;;;;;8.41;100.00;138093.69;4997555;28;20038;-70
2022/04/07 10:47:06;;;;;;;1.60;0.60;;;;;;;8.38;100.00;135054.06;4991820;28;20026;-70
2022/04/07 10:49:32;;;;;;;1.83;0.70;;;;;;;8.20;100.00;136022.19;5006081;28;20030;-70
2022/04/07 10:51:59;;;;;;;1.10;0.60;;;;;;;7.99;100.00;137319.69;4994355;28;20040;-70
2022/04/07 10:54:30;;;;;;;2.63;0.90;;;;;;;8.15;100.00;143765.59;5005278;28;20030;-70
2022/04/07 10:56:59;;;;;;;3.47;0.87;;;;;;;8.03;100.00;146773.91;5000147;28;20045;-70
2022/04/07 10:59:31;;;;;;;3.33;1.10;;;;;;;8.28;100.00;149542.63;4995276;28;20402;-69
2022/04/07 11:02:09;;;;;;;3.00;0.80;;;;;;;8.19;100.00;148502.66;4994784;28;20085;-69
2022/04/07 11:04:37;;;;;;;4.20;1.20;;;;;;;8.34;100.00;147187.94;5008004;28;20026;-69
2022/04/07 11:07:07;;;;;;;3.90;1.23;;;;;;;9.10;100.00;149750.88;5014698;28;20034;-69
2022/04/07 11:09:48;;;;;;;2.73;0.90;;;;;;;8.96;100.00;144300.06;5014022;28;20083;-69
2022/04/07 11:12:19;;;;;;;4.53;1.00;;;;;;;8.82;100.00;140890.13;5014510;28;20026;-70
2022/04/07 11:14:46;;;;;;;4.75;1.20;;;;;;;8.76;100.00;135814.56;5013218;28;20037;-70
2022/04/07 11:17:22;;;;;;;4.50;1.00;;;;;;;8.73;100.00;129746.81;5014533;28;20060;-70
2022/04/07 11:20:03;;;;;;;4.90;1.20;;;;;;;9.11;100.00;131513.72;5011976;28;20520;-70
2022/04/07 11:23:08;;;;;;;1.50;0.90;;;;;;;9.38;100.00;125850.47;5015497;28;20026;-69